Time;durP1;ratioP1;P1;durP2;ratioP2;P2;SDS_P1;SDS_P2;PMS_P1;PMS_P2;Temp;Humidity;BMP_temperature;BMP_pressure;BME280_temperature;BME280_humidity;BME280_pressure;Samples;Min_cycle;Max_cycle;Signal;HPM_P1;HPM_P2
2023/12/13 06:00:10;;;;;;;5.03;3.50;;;;;;;;;;1742282;28;20180;-79
2023/12/13 06:01:02;;;;;;;3.80;3.50;;;;;;;;;;1741760;28;20207;-78
2023/12/13 06:01:54;;;;;;;4.30;3.78;;;;;;;;;;1742423;28;20217;-79
2023/12/13 06:02:46;;;;;;;4.47;3.63;;;;;;;;;;1743032;28;20640;-78
2023/12/13 06:03:40;;;;;;;4.15;3.08;;;;;;;;;;1742455;28;20210;-78
2023/12/13 06:04:31;;;;;;;3.95;3.55;;;;;;;;;;1742259;28;20199;-78
2023/12/13 06:05:23;;;;;;;2.85;2.47;;;;;;;;;;1742332;28;20621;-78
2023/12/13 06:06:14;;;;;;;2.53;1.80;;;;;;;;;;1742226;28;20567;-78
2023/12/13 06:07:06;;;;;;;1.90;1.80;;;;;;;;;;1741915;28;20276;-79
2023/12/13 06:07:58;;;;;;;2.47;1.70;;;;;;;;;;1742512;28;20203;-78
2023/12/13 06:08:49;;;;;;;2.40;1.75;;;;;;;;;;1741863;28;20234;-77
2023/12/13 06:09:41;;;;;;;2.28;1.60;;;;;;;;;;1741784;28;20199;-78
2023/12/13 06:10:33;;;;;;;4.68;1.88;;;;;;;;;;1742103;28;20256;-78
2023/12/13 06:11:24;;;;;;;2.70;1.92;;;;;;;;;;1741972;28;20210;-79
2023/12/13 06:12:17;;;;;;;2.30;2.00;;;;;;;;;;1742897;28;20601;-75
2023/12/13 06:13:09;;;;;;;1.85;1.70;;;;;;;;;;1747876;28;20194;-76
2023/12/13 06:14:00;;;;;;;2.72;2.00;;;;;;;;;;1743454;28;20214;-76
2023/12/13 06:14:51;;;;;;;2.10;1.65;;;;;;;;;;1741097;28;20238;-77
2023/12/13 06:15:45;;;;;;;2.10;1.55;;;;;;;;;;1741126;28;20299;-77
2023/12/13 06:16:36;;;;;;;2.15;1.73;;;;;;;;;;1741048;28;20238;-76
2023/12/13 06:17:28;;;;;;;2.00;1.55;;;;;;;;;;1740309;28;20203;-76
2023/12/13 06:18:20;;;;;;;2.47;1.70;;;;;;;;;;1741208;28;20207;-76
2023/12/13 06:19:12;;;;;;;1.60;1.50;;;;;;;;;;1741295;28;20601;-77
2023/12/13 06:20:03;;;;;;;2.33;1.90;;;;;;;;;;1741298;28;20222;-77
2023/12/13 06:20:54;;;;;;;2.05;1.60;;;;;;;;;;1741237;28;20256;-76
2023/12/13 06:21:46;;;;;;;2.13;1.48;;;;;;;;;;1741691;28;20203;-79
2023/12/13 06:22:37;;;;;;;2.33;1.52;;;;;;;;;;1743645;28;20198;-79
2023/12/13 06:23:28;;;;;;;3.33;1.52;;;;;;;;;;1741356;28;20203;-78
2023/12/13 06:24:21;;;;;;;1.60;1.50;;;;;;;;;;1741538;28;20630;-78
2023/12/13 06:25:12;;;;;;;1.65;1.20;;;;;;;;;;1741703;28;20206;-78
2023/12/13 06:26:04;;;;;;;1.10;1.00;;;;;;;;;;1741678;28;20816;-78
2023/12/13 06:26:55;;;;;;;2.10;0.98;;;;;;;;;;1740602;28;20202;-76
2023/12/13 06:27:46;;;;;;;2.17;1.33;;;;;;;;;;1741137;28;20205;-74
2023/12/13 06:28:38;;;;;;;1.83;0.90;;;;;;;;;;1741083;28;20571;-74
2023/12/13 06:29:29;;;;;;;1.52;1.15;;;;;;;;;;1741016;28;20588;-74
2023/12/13 06:30:21;;;;;;;1.25;0.77;;;;;;;;;;1741146;28;20208;-77
2023/12/13 06:31:14;;;;;;;2.03;0.88;;;;;;;;;;1740923;28;20229;-76
2023/12/13 06:32:06;;;;;;;3.25;1.00;;;;;;;;;;1741280;28;20196;-77
2023/12/13 06:32:57;;;;;;;2.20;1.00;;;;;;;;;;1740729;28;20214;-76
2023/12/13 06:33:48;;;;;;;1.83;0.90;;;;;;;;;;1740669;28;20562;-77
2023/12/13 06:34:40;;;;;;;1.33;0.70;;;;;;;;;;1740933;28;20195;-75
2023/12/13 06:35:31;;;;;;;1.90;0.85;;;;;;;;;;1744049;28;20215;-76
2023/12/13 06:36:24;;;;;;;1.75;0.80;;;;;;;;;;1747337;28;20198;-77
2023/12/13 06:37:15;;;;;;;2.20;0.90;;;;;;;;;;1739515;28;20200;-76
2023/12/13 06:38:06;;;;;;;1.58;0.90;;;;;;;;;;1739490;28;20696;-76
2023/12/13 06:38:58;;;;;;;2.25;0.88;;;;;;;;;;1739106;28;20219;-76
2023/12/13 06:39:49;;;;;;;3.03;2.03;;;;;;;;;;1736349;28;20203;-76
2023/12/13 06:40:42;;;;;;;4.20;1.55;;;;;;;;;;1737061;28;20273;-75
2023/12/13 06:41:33;;;;;;;3.63;1.00;;;;;;;;;;1739206;28;20256;-75
2023/12/13 06:42:25;;;;;;;1.63;1.08;;;;;;;;;;1737968;28;20226;-76
2023/12/13 06:43:16;;;;;;;1.33;0.90;;;;;;;;;;1741025;28;20292;-75
2023/12/13 06:44:08;;;;;;;2.35;1.10;;;;;;;;;;1741110;28;20598;-74
2023/12/13 06:45:00;;;;;;;1.85;0.98;;;;;;;;;;1741189;28;20650;-78
2023/12/13 06:45:51;;;;;;;0.90;0.80;;;;;;;;;;1740971;28;20404;-74
2023/12/13 06:46:43;;;;;;;2.28;0.90;;;;;;;;;;1741129;28;20232;-75
2023/12/13 06:47:35;;;;;;;2.22;0.85;;;;;;;;;;1740395;28;20199;-74
2023/12/13 06:48:28;;;;;;;1.70;0.90;;;;;;;;;;1741040;28;20673;-75
2023/12/13 06:49:21;;;;;;;1.90;0.90;;;;;;;;;;1743538;28;20191;-75
2023/12/13 06:50:13;;;;;;;1.70;0.98;;;;;;;;;;1741224;28;20294;-75
2023/12/13 06:51:04;;;;;;;1.45;0.95;;;;;;;;;;1740730;28;20203;-75
2023/12/13 06:51:56;;;;;;;3.08;0.90;;;;;;;;;;1741172;28;20207;-76
2023/12/13 06:52:48;;;;;;;1.45;0.90;;;;;;;;;;1741107;28;20543;-75
2023/12/13 06:53:39;;;;;;;3.30;0.80;;;;;;;;;;1741129;28;20244;-76
2023/12/13 06:54:31;;;;;;;1.70;0.90;;;;;;;;;;1740897;28;20719;-75
2023/12/13 06:55:23;;;;;;;2.47;0.90;;;;;;;;;;1741092;28;20199;-74
2023/12/13 06:56:14;;;;;;;1.95;1.15;;;;;;;;;;1741216;28;20202;-76
2023/12/13 06:57:06;;;;;;;2.47;1.08;;;;;;;;;;1740346;28;20195;-77
2023/12/13 06:57:58;;;;;;;1.38;0.90;;;;;;;;;;1741029;28;20290;-76
2023/12/13 06:58:49;;;;;;;1.83;1.25;;;;;;;;;;1741020;28;20222;-76
2023/12/13 06:59:41;;;;;;;5.65;0.90;;;;;;;;;;1741121;28;20203;-77
2023/12/13 07:00:32;;;;;;;1.75;1.20;;;;;;;;;;1741053;28;20225;-77
2023/12/13 07:01:23;;;;;;;3.15;1.15;;;;;;;;;;1740766;28;20191;-77
2023/12/13 07:02:17;;;;;;;0.95;0.82;;;;;;;;;;1741184;28;20202;-79
2023/12/13 07:03:08;;;;;;;1.35;0.93;;;;;;;;;;1740933;28;20282;-76
2023/12/13 07:04:01;;;;;;;4.20;1.08;;;;;;;;;;1740837;28;20195;-75
2023/12/13 07:04:53;;;;;;;1.92;1.13;;;;;;;;;;1740884;28;20207;-76
2023/12/13 07:05:44;;;;;;;2.00;0.90;;;;;;;;;;1734119;28;20211;-75
2023/12/13 07:06:35;;;;;;;1.25;1.00;;;;;;;;;;1734173;28;20626;-77
2023/12/13 07:07:27;;;;;;;3.30;1.02;;;;;;;;;;1739761;28;20205;-76
2023/12/13 07:08:18;;;;;;;0.93;0.70;;;;;;;;;;1741123;28;20210;-77
2023/12/13 07:09:10;;;;;;;1.30;0.90;;;;;;;;;;1740935;28;20226;-76
2023/12/13 07:10:02;;;;;;;1.38;1.00;;;;;;;;;;1740752;28;20566;-76
2023/12/13 07:10:53;;;;;;;1.13;0.70;;;;;;;;;;1740737;28;20204;-77
2023/12/13 07:11:47;;;;;;;1.55;0.90;;;;;;;;;;1741047;28;20198;-76
2023/12/13 07:12:38;;;;;;;2.42;1.20;;;;;;;;;;1741158;28;20228;-77
2023/12/13 07:13:30;;;;;;;1.70;1.00;;;;;;;;;;1741006;28;20669;-77
2023/12/13 07:14:21;;;;;;;4.10;1.10;;;;;;;;;;1740983;28;20604;-76
2023/12/13 07:15:14;;;;;;;1.80;0.93;;;;;;;;;;1741000;28;20264;-76
2023/12/13 07:16:05;;;;;;;2.08;1.00;;;;;;;;;;1740888;28;20206;-77
2023/12/13 07:16:56;;;;;;;1.48;1.00;;;;;;;;;;1740264;28;20206;-76
2023/12/13 07:17:50;;;;;;;1.75;1.10;;;;;;;;;;1740982;28;20205;-77
2023/12/13 07:18:41;;;;;;;1.42;1.10;;;;;;;;;;1740986;28;20210;-76
2023/12/13 07:19:33;;;;;;;2.15;1.55;;;;;;;;;;1740627;28;20295;-76
2023/12/13 07:20:24;;;;;;;1.65;1.27;;;;;;;;;;1740707;28;20199;-76
2023/12/13 07:21:15;;;;;;;2.83;1.17;;;;;;;;;;1740634;28;20191;-77
2023/12/13 07:22:07;;;;;;;1.98;1.08;;;;;;;;;;1739557;28;20927;-76
2023/12/13 07:22:58;;;;;;;2.13;1.00;;;;;;;;;;1740935;28;20717;-75
2023/12/13 07:23:49;;;;;;;1.65;1.20;;;;;;;;;;1740832;28;20294;-76
2023/12/13 07:24:41;;;;;;;2.00;1.00;;;;;;;;;;1740877;28;20226;-76
2023/12/13 07:25:32;;;;;;;1.23;1.13;;;;;;;;;;1740982;28;20207;-76
2023/12/13 07:26:24;;;;;;;1.27;0.93;;;;;;;;;;1740796;28;20203;-76
2023/12/13 07:27:15;;;;;;;2.08;1.08;;;;;;;;;;1740197;28;20199;-76
2023/12/13 07:28:08;;;;;;;1.20;0.80;;;;;;;;;;1740890;28;20729;-77
2023/12/13 07:28:59;;;;;;;3.00;1.00;;;;;;;;;;1741029;28;20257;-76
2023/12/13 07:29:51;;;;;;;3.40;1.10;;;;;;;;;;1740460;28;20197;-75
2023/12/13 07:30:43;;;;;;;2.30;1.20;;;;;;;;;;1740993;28;20211;-76
2023/12/13 07:31:37;;;;;;;1.15;0.90;;;;;;;;;;1740679;28;20226;-75
2023/12/13 07:32:29;;;;;;;3.95;1.20;;;;;;;;;;1740871;28;20199;-76
2023/12/13 07:33:22;;;;;;;3.13;1.30;;;;;;;;;;1740929;28;20195;-75
2023/12/13 07:34:14;;;;;;;2.70;1.70;;;;;;;;;;1740753;28;20206;-76
2023/12/13 07:35:05;;;;;;;3.17;0.95;;;;;;;;;;1740935;28;20207;-76
2023/12/13 07:35:56;;;;;;;2.30;1.10;;;;;;;;;;1740862;28;20202;-76
2023/12/13 07:36:49;;;;;;;2.95;1.08;;;;;;;;;;1740409;28;20280;-77
2023/12/13 07:37:40;;;;;;;2.47;1.00;;;;;;;;;;1740670;28;20239;-76
2023/12/13 07:38:32;;;;;;;1.88;1.00;;;;;;;;;;1740483;28;20633;-76
2023/12/13 07:39:24;;;;;;;1.20;0.85;;;;;;;;;;1740913;28;20207;-76
2023/12/13 07:40:16;;;;;;;1.38;0.90;;;;;;;;;;1740873;28;20207;-76
2023/12/13 07:41:07;;;;;;;2.65;1.08;;;;;;;;;;1740604;28;20195;-76
2023/12/13 07:41:58;;;;;;;3.42;0.90;;;;;;;;;;1740922;28;20483;-76
2023/12/13 07:42:50;;;;;;;4.18;1.10;;;;;;;;;;1740954;28;20574;-76
2023/12/13 07:43:41;;;;;;;2.45;0.85;;;;;;;;;;1740856;28;20222;-76
2023/12/13 07:44:33;;;;;;;1.52;0.85;;;;;;;;;;1740817;28;20207;-75
2023/12/13 07:45:25;;;;;;;1.55;0.80;;;;;;;;;;1741712;28;20237;-76
2023/12/13 07:46:16;;;;;;;1.13;0.98;;;;;;;;;;1742260;28;20214;-75
2023/12/13 07:47:08;;;;;;;1.48;1.20;;;;;;;;;;1741221;28;20206;-77
2023/12/13 07:47:59;;;;;;;2.03;0.95;;;;;;;;;;1742215;28;20206;-77
2023/12/13 07:48:52;;;;;;;1.55;0.88;;;;;;;;;;1742067;28;20219;-77
2023/12/13 07:49:44;;;;;;;2.03;1.05;;;;;;;;;;1742271;28;20575;-76
2023/12/13 07:50:35;;;;;;;3.90;1.20;;;;;;;;;;1742017;28;20576;-76
2023/12/13 07:51:26;;;;;;;1.85;0.80;;;;;;;;;;1741974;28;20248;-77
2023/12/13 07:52:18;;;;;;;3.50;1.00;;;;;;;;;;1742127;28;20195;-76
2023/12/13 07:53:09;;;;;;;1.67;1.00;;;;;;;;;;1742371;28;20237;-76
2023/12/13 07:54:01;;;;;;;2.55;1.00;;;;;;;;;;1742620;28;20241;-77
2023/12/13 07:54:54;;;;;;;1.55;1.20;;;;;;;;;;1742684;28;20207;-76
2023/12/13 07:55:45;;;;;;;2.85;1.30;;;;;;;;;;1742055;28;20199;-76
2023/12/13 07:56:37;;;;;;;3.58;1.13;;;;;;;;;;1742326;28;20202;-76
2023/12/13 07:57:29;;;;;;;2.72;1.33;;;;;;;;;;1741104;28;20202;-75
2023/12/13 07:58:20;;;;;;;1.77;1.20;;;;;;;;;;1742060;28;20203;-77
2023/12/13 07:59:12;;;;;;;2.90;1.30;;;;;;;;;;1742109;28;20758;-76
2023/12/13 08:00:04;;;;;;;2.10;1.10;;;;;;;;;;1741882;28;20242;-76
2023/12/13 08:00:56;;;;;;;3.25;1.30;;;;;;;;;;1741945;28;20203;-77
2023/12/13 08:01:47;;;;;;;3.30;1.30;;;;;;;;;;1741873;28;20207;-76
2023/12/13 08:02:38;;;;;;;1.90;1.30;;;;;;;;;;1742127;28;20191;-76
2023/12/13 08:03:30;;;;;;;2.45;1.55;;;;;;;;;;1741938;28;20325;-75
2023/12/13 08:04:23;;;;;;;1.90;1.70;;;;;;;;;;1742093;28;20207;-77
2023/12/13 08:05:16;;;;;;;1.75;1.40;;;;;;;;;;1742117;28;20580;-76
2023/12/13 08:06:12;;;;;;;2.40;1.60;;;;;;;;;;1742009;28;20622;-77
2023/12/13 08:07:03;;;;;;;1.88;1.60;;;;;;;;;;1741543;28;20687;-76
2023/12/13 08:07:55;;;;;;;2.15;1.20;;;;;;;;;;1742012;28;20199;-77
2023/12/13 08:08:47;;;;;;;2.63;1.80;;;;;;;;;;1742052;28;20207;-77
2023/12/13 08:09:38;;;;;;;2.53;1.30;;;;;;;;;;1741930;28;20241;-77
2023/12/13 08:10:30;;;;;;;1.88;1.40;;;;;;;;;;1741954;28;20214;-77
2023/12/13 08:11:22;;;;;;;2.25;1.30;;;;;;;;;;1742228;28;20686;-75
2023/12/13 08:12:14;;;;;;;2.53;1.55;;;;;;;;;;1742035;28;20513;-76
2023/12/13 08:13:05;;;;;;;2.00;1.35;;;;;;;;;;1741808;28;20218;-75
2023/12/13 08:13:56;;;;;;;1.98;1.35;;;;;;;;;;1741772;28;20264;-76
2023/12/13 08:14:48;;;;;;;3.70;1.40;;;;;;;;;;1741994;28;20551;-77
2023/12/13 08:15:39;;;;;;;2.78;1.85;;;;;;;;;;1741776;28;20565;-77
2023/12/13 08:16:31;;;;;;;1.50;1.40;;;;;;;;;;1741994;28;20257;-77
2023/12/13 08:17:22;;;;;;;2.38;1.20;;;;;;;;;;1740711;28;20211;-77
2023/12/13 08:18:14;;;;;;;2.30;1.40;;;;;;;;;;1738650;28;20258;-76
2023/12/13 08:19:05;;;;;;;2.15;1.40;;;;;;;;;;1741628;28;20695;-77
2023/12/13 08:19:58;;;;;;;2.30;1.27;;;;;;;;;;1741738;28;20261;-77
2023/12/13 08:20:50;;;;;;;2.53;1.52;;;;;;;;;;1741194;28;20206;-77
2023/12/13 08:21:41;;;;;;;3.42;1.70;;;;;;;;;;1741274;28;20215;-76
2023/12/13 08:22:32;;;;;;;3.35;1.60;;;;;;;;;;1741437;28;20199;-77
2023/12/13 08:23:24;;;;;;;7.40;1.70;;;;;;;;;;1741988;28;20897;-76
2023/12/13 08:24:15;;;;;;;3.95;1.80;;;;;;;;;;1741745;28;20316;-77
2023/12/13 08:25:06;;;;;;;3.40;1.85;;;;;;;;;;1741428;28;20203;-76
2023/12/13 08:25:58;;;;;;;3.30;1.77;;;;;;;;;;1741701;28;20202;-77
2023/12/13 08:26:49;;;;;;;4.05;2.00;;;;;;;;;;1741517;28;20210;-77
2023/12/13 08:27:40;;;;;;;4.25;2.58;;;;;;;;;;1741916;28;20203;-77
2023/12/13 08:28:32;;;;;;;3.30;2.42;;;;;;;;;;1741930;28;20195;-77
2023/12/13 08:29:23;;;;;;;4.80;3.60;;;;;;;;;;1742048;28;20211;-77
2023/12/13 08:30:15;;;;;;;3.80;2.80;;;;;;;;;;1742080;28;20226;-77
2023/12/13 08:31:08;;;;;;;4.60;3.28;;;;;;;;;;1741755;28;20199;-77
2023/12/13 08:31:59;;;;;;;5.75;4.50;;;;;;;;;;1742010;28;20293;-77
2023/12/13 08:32:51;;;;;;;5.30;4.70;;;;;;;;;;1741550;28;20199;-77
2023/12/13 08:33:43;;;;;;;6.57;5.38;;;;;;;;;;1741946;28;20207;-77
2023/12/13 08:34:35;;;;;;;5.38;4.68;;;;;;;;;;1741863;28;20252;-77
2023/12/13 08:35:27;;;;;;;5.22;4.72;;;;;;;;;;1742102;28;20659;-77
2023/12/13 08:36:19;;;;;;;5.38;4.60;;;;;;;;;;1741913;28;20199;-77
2023/12/13 08:37:10;;;;;;;7.05;4.00;;;;;;;;;;1741175;28;20207;-77
2023/12/13 08:38:01;;;;;;;6.05;4.30;;;;;;;;;;1742139;28;20206;-77
2023/12/13 08:38:53;;;;;;;5.75;4.10;;;;;;;;;;1741775;28;20231;-77
2023/12/13 08:39:45;;;;;;;3.50;3.20;;;;;;;;;;1741988;28;20203;-77
2023/12/13 08:40:37;;;;;;;5.60;3.10;;;;;;;;;;1741954;28;20652;-77
2023/12/13 08:41:28;;;;;;;4.65;2.85;;;;;;;;;;1741666;28;20206;-77
2023/12/13 08:42:20;;;;;;;2.50;1.90;;;;;;;;;;1741879;28;20751;-77
2023/12/13 08:43:11;;;;;;;2.45;1.80;;;;;;;;;;1741897;28;20203;-77
2023/12/13 08:44:02;;;;;;;3.28;1.70;;;;;;;;;;1741781;28;20226;-77
2023/12/13 08:44:55;;;;;;;1.33;1.23;;;;;;;;;;1741960;28;20229;-77
2023/12/13 08:45:46;;;;;;;2.22;1.42;;;;;;;;;;1742012;28;20203;-76
2023/12/13 08:46:37;;;;;;;1.70;1.25;;;;;;;;;;1741929;28;20234;-77
2023/12/13 08:47:29;;;;;;;3.50;1.40;;;;;;;;;;1741130;28;20233;-77
2023/12/13 08:48:20;;;;;;;1.25;1.05;;;;;;;;;;1741827;28;20687;-77
2023/12/13 08:49:12;;;;;;;2.03;1.50;;;;;;;;;;1741755;28;20211;-77
2023/12/13 08:50:03;;;;;;;2.65;1.85;;;;;;;;;;1741638;28;20214;-77
2023/12/13 08:50:57;;;;;;;2.67;1.98;;;;;;;;;;1741762;28;20193;-77
2023/12/13 08:51:48;;;;;;;3.08;1.90;;;;;;;;;;1742097;28;20210;-77
2023/12/13 08:52:40;;;;;;;5.25;2.15;;;;;;;;;;1741928;28;20202;-77
2023/12/13 08:53:31;;;;;;;4.43;3.35;;;;;;;;;;1741884;28;20206;-77
2023/12/13 08:54:23;;;;;;;5.07;3.30;;;;;;;;;;1741872;28;20205;-77
2023/12/13 08:55:14;;;;;;;5.25;4.18;;;;;;;;;;1742020;28;20214;-77
2023/12/13 08:56:06;;;;;;;5.57;4.40;;;;;;;;;;1741547;28;20265;-76
2023/12/13 08:56:58;;;;;;;5.65;4.57;;;;;;;;;;1741175;28;20203;-77
2023/12/13 08:57:49;;;;;;;8.75;4.97;;;;;;;;;;1741865;28;20210;-77
2023/12/13 08:58:40;;;;;;;4.95;4.13;;;;;;;;;;1741795;28;20199;-76
2023/12/13 08:59:32;;;;;;;4.38;3.95;;;;;;;;;;1741989;28;20191;-77
2023/12/13 09:00:23;;;;;;;4.68;3.88;;;;;;;;;;1741523;28;20248;-77
2023/12/13 09:01:14;;;;;;;6.57;4.50;;;;;;;;;;1741748;28;20210;-77
2023/12/13 09:02:07;;;;;;;6.57;4.80;;;;;;;;;;1741715;28;20199;-76
2023/12/13 09:02:58;;;;;;;5.15;3.70;;;;;;;;;;1741758;28;20278;-78
2023/12/13 09:03:51;;;;;;;5.03;3.50;;;;;;;;;;1741734;28;20199;-77
2023/12/13 09:04:43;;;;;;;5.00;3.65;;;;;;;;;;1741716;28;20209;-77
2023/12/13 09:05:34;;;;;;;4.95;3.83;;;;;;;;;;1741783;28;20585;-77
2023/12/13 09:06:27;;;;;;;4.50;2.60;;;;;;;;;;1741918;28;20237;-77
2023/12/13 09:07:18;;;;;;;6.00;3.00;;;;;;;;;;1740975;28;20207;-77
2023/12/13 09:08:09;;;;;;;3.45;2.90;;;;;;;;;;1741740;28;20199;-77
2023/12/13 09:09:03;;;;;;;3.65;2.60;;;;;;;;;;1741721;28;20219;-77
2023/12/13 09:09:54;;;;;;;3.83;2.17;;;;;;;;;;1741762;28;20203;-77
2023/12/13 09:10:46;;;;;;;3.10;2.17;;;;;;;;;;1741484;28;20683;-76
2023/12/13 09:11:38;;;;;;;4.30;2.20;;;;;;;;;;1741870;28;20210;-77
2023/12/13 09:12:29;;;;;;;7.80;2.80;;;;;;;;;;1741788;28;20202;-77
2023/12/13 09:13:20;;;;;;;6.63;3.50;;;;;;;;;;1741798;28;20256;-76
2023/12/13 09:14:12;;;;;;;5.15;3.50;;;;;;;;;;1741716;28;20191;-77
2023/12/13 09:15:05;;;;;;;5.30;2.75;;;;;;;;;;1741764;28;20207;-77
2023/12/13 09:15:56;;;;;;;6.43;2.78;;;;;;;;;;1741696;28;20608;-77
2023/12/13 09:16:48;;;;;;;3.67;2.65;;;;;;;;;;1741151;28;20268;-77
2023/12/13 09:17:45;;;;;;;3.65;2.60;;;;;;;;;;1741508;28;20211;-77
2023/12/13 09:18:36;;;;;;;4.38;3.00;;;;;;;;;;1741661;28;20203;-76
2023/12/13 09:19:28;;;;;;;6.43;2.80;;;;;;;;;;1741742;28;20829;-77
2023/12/13 09:20:19;;;;;;;5.05;2.95;;;;;;;;;;1741491;28;20206;-77
2023/12/13 09:21:10;;;;;;;4.72;2.20;;;;;;;;;;1741741;28;20607;-77
2023/12/13 09:22:04;;;;;;;2.72;1.90;;;;;;;;;;1741805;28;20269;-77
2023/12/13 09:22:55;;;;;;;2.83;2.10;;;;;;;;;;1734827;28;20208;-77
2023/12/13 09:23:46;;;;;;;3.95;2.35;;;;;;;;;;1734793;28;20691;-77
2023/12/13 09:24:38;;;;;;;4.13;2.50;;;;;;;;;;1740126;28;20257;-77
2023/12/13 09:25:29;;;;;;;8.02;2.78;;;;;;;;;;1741652;28;20214;-76
2023/12/13 09:26:21;;;;;;;4.97;2.92;;;;;;;;;;1741716;28;20211;-77
2023/12/13 09:27:12;;;;;;;4.85;2.95;;;;;;;;;;1740895;28;20387;-77
2023/12/13 09:28:03;;;;;;;5.00;3.10;;;;;;;;;;1741720;28;20233;-77
2023/12/13 09:28:56;;;;;;;4.95;2.85;;;;;;;;;;1741662;28;20226;-77
2023/12/13 09:29:47;;;;;;;3.72;2.50;;;;;;;;;;1741630;28;20668;-77
2023/12/13 09:30:38;;;;;;;4.93;3.25;;;;;;;;;;1741365;28;20198;-77
2023/12/13 09:31:30;;;;;;;5.78;3.67;;;;;;;;;;1741575;28;20230;-77
2023/12/13 09:32:22;;;;;;;5.90;3.85;;;;;;;;;;1741566;28;20207;-77
2023/12/13 09:33:13;;;;;;;5.32;3.55;;;;;;;;;;1741610;28;20203;-77
2023/12/13 09:34:06;;;;;;;5.10;3.75;;;;;;;;;;1741536;28;20203;-76
2023/12/13 09:34:57;;;;;;;6.00;3.95;;;;;;;;;;1741633;28;20203;-77
2023/12/13 09:35:49;;;;;;;5.10;4.03;;;;;;;;;;1741655;28;20571;-77
2023/12/13 09:36:41;;;;;;;6.20;3.90;;;;;;;;;;1741587;28;20602;-77
2023/12/13 09:37:34;;;;;;;5.85;3.67;;;;;;;;;;1740732;28;20203;-76
2023/12/13 09:38:26;;;;;;;12.05;3.40;;;;;;;;;;1741657;28;20203;-77
2023/12/13 09:39:17;;;;;;;3.08;2.30;;;;;;;;;;1741456;28;20273;-76
2023/12/13 09:40:14;;;;;;;5.13;2.92;;;;;;;;;;1741686;28;20199;-76
2023/12/13 09:41:06;;;;;;;3.80;2.15;;;;;;;;;;1738232;28;20200;-77
2023/12/13 09:42:00;;;;;;;7.25;2.10;;;;;;;;;;1734762;28;20204;-77
2023/12/13 09:42:53;;;;;;;3.42;2.20;;;;;;;;;;1734757;28;20290;-76
2023/12/13 09:43:44;;;;;;;3.45;1.85;;;;;;;;;;1740614;28;20237;-77
2023/12/13 09:44:39;;;;;;;2.53;1.60;;;;;;;;;;1741427;28;20551;-77
2023/12/13 09:45:31;;;;;;;5.53;1.88;;;;;;;;;;1741487;28;20260;-76
2023/12/13 09:46:23;;;;;;;3.72;1.88;;;;;;;;;;1741733;28;20199;-76
2023/12/13 09:47:17;;;;;;;2.40;1.55;;;;;;;;;;1740865;28;20272;-76
2023/12/13 09:48:08;;;;;;;4.63;2.10;;;;;;;;;;1741479;28;20195;-77
2023/12/13 09:49:00;;;;;;;2.08;1.70;;;;;;;;;;1741450;28;20246;-77
2023/12/13 09:49:52;;;;;;;3.20;1.90;;;;;;;;;;1746378;28;20210;-75
2023/12/13 09:50:43;;;;;;;4.78;1.88;;;;;;;;;;1749750;28;20188;-76
2023/12/13 09:51:36;;;;;;;3.45;2.05;;;;;;;;;;1742827;28;20274;-77
2023/12/13 09:52:28;;;;;;;4.13;2.47;;;;;;;;;;1741735;28;20277;-76
2023/12/13 09:53:21;;;;;;;4.47;2.90;;;;;;;;;;1741545;28;20703;-76
2023/12/13 09:54:14;;;;;;;4.40;3.08;;;;;;;;;;1741458;28;20253;-76
2023/12/13 09:55:06;;;;;;;5.28;2.92;;;;;;;;;;1741565;28;20596;-76
2023/12/13 09:55:58;;;;;;;4.40;3.03;;;;;;;;;;1741514;28;20248;-76
2023/12/13 09:56:50;;;;;;;4.10;3.10;;;;;;;;;;1741056;28;20292;-76
2023/12/13 09:57:41;;;;;;;5.03;2.70;;;;;;;;;;1741104;28;20663;-76
2023/12/13 09:58:32;;;;;;;4.63;3.05;;;;;;;;;;1741235;28;20434;-76
2023/12/13 09:59:25;;;;;;;5.60;2.60;;;;;;;;;;1741466;28;20290;-76
2023/12/13 10:00:16;;;;;;;5.57;2.92;;;;;;;;;;1741369;28;20663;-76
2023/12/13 10:01:10;;;;;;;5.03;3.10;;;;;;;;;;1740876;28;20195;-77
2023/12/13 10:02:03;;;;;;;4.90;2.78;;;;;;;;;;1741517;28;20214;-77
2023/12/13 10:02:55;;;;;;;14.65;12.25;;;;;;;;;;1738370;28;20206;-76
2023/12/13 10:03:46;;;;;;;26.80;20.48;;;;;;;;;;1741381;28;20218;-76
2023/12/13 10:04:38;;;;;;;26.38;18.60;;;;;;;;;;1741292;28;20258;-76
2023/12/13 10:05:33;;;;;;;13.93;6.75;;;;;;;;;;1741365;28;20195;-77
2023/12/13 10:06:24;;;;;;;6.13;4.25;;;;;;;;;;1741384;28;20238;-76
2023/12/13 10:07:16;;;;;;;3.72;2.50;;;;;;;;;;1740651;28;20207;-76
2023/12/13 10:08:10;;;;;;;10.27;2.45;;;;;;;;;;1740813;28;20627;-77
2023/12/13 10:09:03;;;;;;;4.55;2.03;;;;;;;;;;1741355;28;20294;-76
2023/12/13 10:09:55;;;;;;;4.07;2.20;;;;;;;;;;1741406;28;20210;-76
2023/12/13 10:10:47;;;;;;;4.97;2.55;;;;;;;;;;1741355;28;20253;-76
2023/12/13 10:11:39;;;;;;;3.40;2.20;;;;;;;;;;1741069;28;20210;-77
2023/12/13 10:12:30;;;;;;;4.10;2.70;;;;;;;;;;1741384;28;20206;-76
2023/12/13 10:13:22;;;;;;;5.03;2.70;;;;;;;;;;1741386;28;20203;-76
2023/12/13 10:14:13;;;;;;;3.67;2.90;;;;;;;;;;1741311;28;20207;-76
2023/12/13 10:15:09;;;;;;;4.45;2.78;;;;;;;;;;1741338;28;20206;-76
2023/12/13 10:16:09;;;;;;;5.30;2.75;;;;;;;;;;1741295;28;20207;-76
2023/12/13 10:17:01;;;;;;;6.57;2.88;;;;;;;;;;1740662;28;20207;-76
2023/12/13 10:17:54;;;;;;;4.75;2.50;;;;;;;;;;1741334;28;20233;-76
2023/12/13 10:18:48;;;;;;;3.33;2.45;;;;;;;;;;1741297;28;20206;-76
2023/12/13 10:19:39;;;;;;;3.05;2.22;;;;;;;;;;1741303;28;20211;-76
2023/12/13 10:20:30;;;;;;;5.22;2.33;;;;;;;;;;1741361;28;20620;-77
2023/12/13 10:21:22;;;;;;;2.90;2.00;;;;;;;;;;1741050;28;20198;-76
2023/12/13 10:22:13;;;;;;;3.00;2.22;;;;;;;;;;1741227;28;20575;-77
2023/12/13 10:23:05;;;;;;;3.65;2.55;;;;;;;;;;1741269;28;20203;-76
2023/12/13 10:23:57;;;;;;;4.20;2.28;;;;;;;;;;1741210;28;20195;-77
2023/12/13 10:24:49;;;;;;;4.80;2.42;;;;;;;;;;1741293;28;20209;-76
2023/12/13 10:25:41;;;;;;;5.40;2.45;;;;;;;;;;1741293;28;20207;-77
2023/12/13 10:26:33;;;;;;;5.40;2.40;;;;;;;;;;1741315;28;20605;-77
2023/12/13 10:27:24;;;;;;;5.65;2.40;;;;;;;;;;1740525;28;20322;-77
2023/12/13 10:28:16;;;;;;;2.33;1.80;;;;;;;;;;1741214;28;20574;-77
2023/12/13 10:29:08;;;;;;;5.88;2.00;;;;;;;;;;1741070;28;20234;-77
2023/12/13 10:29:59;;;;;;;2.83;1.67;;;;;;;;;;1741271;28;20195;-77
2023/12/13 10:30:52;;;;;;;5.38;2.55;;;;;;;;;;1741266;28;20651;-77
2023/12/13 10:31:45;;;;;;;3.08;1.70;;;;;;;;;;1741012;28;20805;-76
2023/12/13 10:32:36;;;;;;;5.32;1.90;;;;;;;;;;1741227;28;20226;-77
2023/12/13 10:33:28;;;;;;;2.47;1.98;;;;;;;;;;1741161;28;20199;-77
2023/12/13 10:34:20;;;;;;;4.68;1.95;;;;;;;;;;1741235;28;20203;-77
2023/12/13 10:35:11;;;;;;;6.03;1.80;;;;;;;;;;1741283;28;20241;-77
2023/12/13 10:36:03;;;;;;;3.88;2.03;;;;;;;;;;1741491;28;20609;-77
2023/12/13 10:36:54;;;;;;;2.72;2.00;;;;;;;;;;1740465;28;20211;-77
2023/12/13 10:37:48;;;;;;;6.75;2.90;;;;;;;;;;1741223;28;20287;-77
2023/12/13 10:38:40;;;;;;;2.78;1.80;;;;;;;;;;1741101;28;20207;-77
2023/12/13 10:39:33;;;;;;;3.15;1.60;;;;;;;;;;1741300;28;20285;-77
2023/12/13 10:40:26;;;;;;;4.72;1.63;;;;;;;;;;1741245;28;20691;-77
2023/12/13 10:41:18;;;;;;;4.15;1.48;;;;;;;;;;1741114;28;20238;-77
2023/12/13 10:42:10;;;;;;;2.45;1.90;;;;;;;;;;1741137;28;20238;-76
2023/12/13 10:43:04;;;;;;;3.58;1.67;;;;;;;;;;1741286;28;20265;-76
2023/12/13 10:43:57;;;;;;;2.28;1.67;;;;;;;;;;1741360;28;20207;-77
2023/12/13 10:44:50;;;;;;;1.90;1.30;;;;;;;;;;1740881;28;20219;-77
2023/12/13 10:45:45;;;;;;;2.88;1.45;;;;;;;;;;1741179;28;20203;-77
2023/12/13 10:46:37;;;;;;;5.78;1.60;;;;;;;;;;1741186;28;20203;-77
2023/12/13 10:47:29;;;;;;;1.48;1.23;;;;;;;;;;1740568;28;20577;-77
2023/12/13 10:48:21;;;;;;;2.50;1.40;;;;;;;;;;1741150;28;20644;-77
2023/12/13 10:49:15;;;;;;;4.88;2.35;;;;;;;;;;1741095;28;20218;-76
2023/12/13 10:50:07;;;;;;;1.98;1.42;;;;;;;;;;1741103;28;20207;-77
2023/12/13 10:51:01;;;;;;;2.45;1.80;;;;;;;;;;1741254;28;20609;-77
2023/12/13 10:51:52;;;;;;;3.55;1.95;;;;;;;;;;1740907;28;20195;-76
2023/12/13 10:52:43;;;;;;;4.28;3.15;;;;;;;;;;1741224;28;20566;-76
2023/12/13 10:53:36;;;;;;;2.83;1.92;;;;;;;;;;1741178;28;20199;-77
2023/12/13 10:54:28;;;;;;;2.92;1.90;;;;;;;;;;1741133;28;20256;-77
2023/12/13 10:55:19;;;;;;;3.13;2.00;;;;;;;;;;1740999;28;20198;-78
2023/12/13 10:56:13;;;;;;;5.03;1.95;;;;;;;;;;1741089;28;20256;-77
2023/12/13 10:57:05;;;;;;;2.60;1.80;;;;;;;;;;1740244;28;20206;-77
2023/12/13 10:57:58;;;;;;;5.90;1.48;;;;;;;;;;1741096;28;20204;-77
2023/12/13 10:58:49;;;;;;;2.30;1.52;;;;;;;;;;1740953;28;20210;-77
2023/12/13 10:59:41;;;;;;;1.75;1.40;;;;;;;;;;1741176;28;20206;-77
2023/12/13 11:00:33;;;;;;;3.40;1.83;;;;;;;;;;1741005;28;20203;-77
2023/12/13 11:01:25;;;;;;;3.25;1.38;;;;;;;;;;1741170;28;20579;-77
2023/12/13 11:02:18;;;;;;;3.05;1.30;;;;;;;;;;1741174;28;20663;-77
2023/12/13 11:03:13;;;;;;;3.03;1.45;;;;;;;;;;1741113;28;20198;-77
2023/12/13 11:04:06;;;;;;;2.53;1.90;;;;;;;;;;1741221;28;20686;-77
2023/12/13 11:04:57;;;;;;;1.92;1.50;;;;;;;;;;1740861;28;20306;-76
2023/12/13 11:05:49;;;;;;;2.65;1.42;;;;;;;;;;1740497;28;20198;-77
2023/12/13 11:06:44;;;;;;;3.38;1.60;;;;;;;;;;1741271;28;20663;-77
2023/12/13 11:07:44;;;;;;;2.50;1.60;;;;;;;;;;1740308;28;20257;-76
2023/12/13 11:08:38;;;;;;;1.63;1.38;;;;;;;;;;1741087;28;20746;-77
2023/12/13 11:09:29;;;;;;;2.72;1.45;;;;;;;;;;1741060;28;20711;-76
2023/12/13 11:10:22;;;;;;;2.75;1.60;;;;;;;;;;1741158;28;20199;-77
2023/12/13 11:11:16;;;;;;;2.40;1.40;;;;;;;;;;1741095;28;20211;-77